createdAt,value
2022-10-12T00:00:43.466Z,11.65
2022-10-12T00:03:13.216Z,12.60
2022-10-12T00:05:41.181Z,12.10
2022-10-12T00:08:13.830Z,12.48
2022-10-12T00:10:42.003Z,12.20
2022-10-12T00:13:10.938Z,12.55
2022-10-12T00:15:39.988Z,12.73
2022-10-12T00:18:08.010Z,13.00
2022-10-12T00:20:35.370Z,12.75
2022-10-12T00:23:02.723Z,12.60
2022-10-12T00:25:29.949Z,12.63
2022-10-12T00:27:57.592Z,11.88
2022-10-12T00:30:32.435Z,11.57
2022-10-12T00:32:59.862Z,11.88
2022-10-12T00:35:29.585Z,10.98
2022-10-12T00:37:56.943Z,11.10
2022-10-12T00:40:24.205Z,11.52
2022-10-12T00:42:51.646Z,10.70
2022-10-12T00:45:18.925Z,12.00
2022-10-12T00:47:56.937Z,11.48
2022-10-12T00:50:33.879Z,11.43
2022-10-12T00:53:11.573Z,11.30
2022-10-12T00:55:58.194Z,11.15
2022-10-12T01:00:53.018Z,10.77
2022-10-12T01:03:22.434Z,10.80
2022-10-12T01:05:53.392Z,10.75
2022-10-12T01:08:21.907Z,11.38
2022-10-12T01:10:59.652Z,10.35
2022-10-12T01:13:29.839Z,10.90
2022-10-12T01:16:20.126Z,11.40
2022-10-12T01:19:09.608Z,10.65
2022-10-12T01:21:48.494Z,11.05
2022-10-12T01:24:32.677Z,9.98
2022-10-12T01:27:24.840Z,10.13
2022-10-12T01:30:33.938Z,10.43
2022-10-12T01:34:09.322Z,10.40
2022-10-12T01:36:41.805Z,10.23
2022-10-12T01:39:21.434Z,10.70
2022-10-12T01:41:54.618Z,10.82
2022-10-12T01:44:23.543Z,10.50
2022-10-12T01:46:53.552Z,10.48
2022-10-12T01:49:30.115Z,10.13
2022-10-12T01:55:17.473Z,9.38
2022-10-12T01:57:50.227Z,9.90
2022-10-12T02:00:20.536Z,10.05
2022-10-12T02:02:53.940Z,9.90
2022-10-12T02:05:29.152Z,10.00
2022-10-12T02:08:20.308Z,9.63
2022-10-12T02:10:50.651Z,9.80
2022-10-12T02:13:23.110Z,9.88
2022-10-12T02:15:53.217Z,9.60
2022-10-12T02:18:24.689Z,8.93
2022-10-12T02:20:54.667Z,9.65
2022-10-12T02:23:24.637Z,9.52
2022-10-12T02:25:53.504Z,10.25
2022-10-12T02:28:24.070Z,10.23
2022-10-12T02:31:02.710Z,10.13
2022-10-12T02:33:46.163Z,9.73
2022-10-12T02:36:20.338Z,10.30
2022-10-12T02:38:57.672Z,10.25
2022-10-12T02:41:30.559Z,9.95
2022-10-12T02:44:10.876Z,10.35
2022-10-12T02:46:40.108Z,10.07
2022-10-12T02:49:08.875Z,9.70
2022-10-12T02:51:42.224Z,10.90
2022-10-12T02:54:09.769Z,10.60
2022-10-12T02:56:46.832Z,10.32
2022-10-12T02:59:18.443Z,10.00
2022-10-12T03:01:45.832Z,9.85
2022-10-12T03:04:13.147Z,9.82
2022-10-12T03:06:42.409Z,10.85
2022-10-12T03:09:10.298Z,10.35
2022-10-12T03:11:37.821Z,11.50
2022-10-12T03:14:05.748Z,10.63
2022-10-12T03:16:33.260Z,10.05
2022-10-12T03:19:00.503Z,10.63
2022-10-12T03:21:30.283Z,10.05
2022-10-12T03:23:57.521Z,10.50
2022-10-12T03:26:24.737Z,10.20
2022-10-12T03:28:52.309Z,10.82
2022-10-12T03:31:22.530Z,10.55
2022-10-12T03:33:49.972Z,11.30
2022-10-12T03:36:19.604Z,10.35
2022-10-12T03:38:46.873Z,10.55
2022-10-12T03:41:14.081Z,9.65
2022-10-12T03:43:44.634Z,10.40
2022-10-12T03:46:12.215Z,9.75
2022-10-12T03:48:39.432Z,10.15
2022-10-12T03:51:06.843Z,10.10
2022-10-12T03:53:34.391Z,10.18
2022-10-12T03:56:01.656Z,10.35
2022-10-12T03:58:28.887Z,9.35
2022-10-12T04:00:56.406Z,11.13
2022-10-12T04:03:23.676Z,9.15
2022-10-12T04:05:57.553Z,9.75
2022-10-12T04:08:26.743Z,9.65
2022-10-12T04:10:54.181Z,9.27
2022-10-12T04:13:21.578Z,9.38
2022-10-12T04:15:48.813Z,9.38
2022-10-12T04:18:20.943Z,9.27
2022-10-12T04:20:49.394Z,9.00
2022-10-12T04:23:16.980Z,9.40
2022-10-12T04:25:44.531Z,9.43
2022-10-12T04:28:11.879Z,10.00
2022-10-12T04:30:40.711Z,9.50
2022-10-12T04:33:08.044Z,10.25
2022-10-12T04:35:35.611Z,9.48
2022-10-12T04:38:10.914Z,9.25
2022-10-12T04:40:38.279Z,9.90
2022-10-12T04:43:05.589Z,9.63
2022-10-12T04:45:32.828Z,10.27
2022-10-12T04:48:00.093Z,9.40
2022-10-12T04:50:29.981Z,9.57
2022-10-12T04:52:57.701Z,9.80
2022-10-12T04:55:25.176Z,9.65
2022-10-12T04:57:52.376Z,10.52
2022-10-12T05:00:19.662Z,9.77
2022-10-12T05:02:47.486Z,9.18
2022-10-12T05:05:14.815Z,9.48
2022-10-12T05:07:45.150Z,10.63
2022-10-12T05:10:12.361Z,10.10
2022-10-12T05:12:40.114Z,10.18
2022-10-12T05:15:08.157Z,9.65
2022-10-12T05:17:35.496Z,9.70
2022-10-12T05:20:03.387Z,10.00
2022-10-12T05:22:31.747Z,9.90
2022-10-12T05:25:21.886Z,10.07
2022-10-12T05:27:50.364Z,9.43
2022-10-12T05:30:17.779Z,9.70
2022-10-12T05:32:45.020Z,9.75
2022-10-12T05:35:17.765Z,9.75
2022-10-12T05:37:45.059Z,9.77
2022-10-12T05:40:12.419Z,9.23
2022-10-12T05:42:40.023Z,9.43
2022-10-12T05:45:07.879Z,10.45
2022-10-12T05:47:39.410Z,9.73
2022-10-12T05:50:24.226Z,10.20
2022-10-12T05:52:51.430Z,10.07
2022-10-12T05:55:18.681Z,9.68
2022-10-12T05:57:51.973Z,8.57
2022-10-12T06:00:22.137Z,8.68
2022-10-12T06:02:52.069Z,8.77
2022-10-12T06:05:19.311Z,8.60
2022-10-12T06:07:58.675Z,9.50
2022-10-12T06:10:29.838Z,8.70
2022-10-12T06:12:57.447Z,9.43
2022-10-12T06:15:24.693Z,7.97
2022-10-12T06:17:51.884Z,8.43
2022-10-12T06:20:19.315Z,8.52
2022-10-12T06:22:46.570Z,8.52
2022-10-12T06:25:13.838Z,8.13
2022-10-12T06:28:06.520Z,9.18
2022-10-12T06:30:33.821Z,8.57
2022-10-12T06:33:27.706Z,8.27
2022-10-12T06:35:57.617Z,8.73
2022-10-12T06:38:24.900Z,8.02
2022-10-12T06:40:53.578Z,7.90
2022-10-12T06:43:22.737Z,8.15
2022-10-12T06:45:50.505Z,9.00
2022-10-12T06:48:18.960Z,8.13
2022-10-12T06:50:47.553Z,7.95
2022-10-12T06:53:15.155Z,8.15
2022-10-12T06:55:42.766Z,8.63
2022-10-12T06:58:10.448Z,8.10
2022-10-12T07:00:38.605Z,7.82
2022-10-12T07:03:06.312Z,8.52
2022-10-12T07:05:34.093Z,7.80
2022-10-12T07:08:01.596Z,8.32
2022-10-12T07:10:29.175Z,8.63
2022-10-12T07:12:56.731Z,8.65
2022-10-12T07:15:24.511Z,8.98
2022-10-12T07:17:52.020Z,8.30
2022-10-12T07:20:19.618Z,8.70
2022-10-12T07:22:47.116Z,8.15
2022-10-12T07:25:17.778Z,7.38
2022-10-12T07:27:48.432Z,8.30
2022-10-12T07:30:16.042Z,7.88
2022-10-12T07:32:44.580Z,7.60
2022-10-12T07:35:14.584Z,7.82
2022-10-12T07:37:42.500Z,7.97
2022-10-12T07:40:10.523Z,7.30
2022-10-12T07:42:53.760Z,7.72
2022-10-12T07:45:28.554Z,7.63
2022-10-12T07:47:56.360Z,8.82
2022-10-12T07:50:30.009Z,7.80
2022-10-12T07:52:58.340Z,7.55
2022-10-12T07:55:25.940Z,7.68
2022-10-12T07:57:53.560Z,8.05
2022-10-12T08:00:22.211Z,7.57
2022-10-12T08:02:50.002Z,8.50
2022-10-12T08:05:21.284Z,9.18
2022-10-12T08:07:49.695Z,9.18
2022-10-12T08:10:17.586Z,8.57
2022-10-12T08:12:49.748Z,8.05
2022-10-12T08:15:19.805Z,6.60
2022-10-12T08:17:47.383Z,6.78
2022-10-12T08:20:14.974Z,8.10
2022-10-12T08:22:42.483Z,6.30
2022-10-12T08:25:10.217Z,6.95
2022-10-12T08:27:40.197Z,6.45
2022-10-12T08:30:08.103Z,6.07
2022-10-12T08:32:35.757Z,7.10
2022-10-12T08:35:03.330Z,5.65
2022-10-12T08:37:31.182Z,5.93
2022-10-12T08:40:03.010Z,5.22
2022-10-12T08:42:44.368Z,5.25
2022-10-12T08:45:30.407Z,5.20
2022-10-12T08:48:01.495Z,4.90
2022-10-12T08:50:39.277Z,4.30
2022-10-12T08:53:15.564Z,4.70
2022-10-12T08:55:45.308Z,4.20
2022-10-12T08:58:22.751Z,4.43
2022-10-12T09:00:53.290Z,4.95
2022-10-12T09:03:27.213Z,4.72
2022-10-12T09:06:13.577Z,4.90
2022-10-12T09:08:49.556Z,5.25
2022-10-12T09:11:26.331Z,4.05
2022-10-12T09:14:19.469Z,4.72
2022-10-12T09:16:48.219Z,4.70
2022-10-12T09:19:18.403Z,4.20
2022-10-12T09:21:47.466Z,4.63
2022-10-12T09:24:19.860Z,4.88
2022-10-12T09:26:49.313Z,4.35
2022-10-12T09:29:35.073Z,4.32
2022-10-12T09:32:09.784Z,3.97
2022-10-12T09:34:37.698Z,5.00
2022-10-12T09:37:44.321Z,4.63
2022-10-12T09:43:23.738Z,4.32
2022-10-12T09:45:51.528Z,4.10
2022-10-12T09:48:20.904Z,4.75
2022-10-12T09:50:50.489Z,4.68
2022-10-12T09:53:23.254Z,4.35
2022-10-12T09:55:55.388Z,4.43
2022-10-12T09:58:23.564Z,4.90
2022-10-12T10:01:39.506Z,3.92
2022-10-12T10:04:38.034Z,4.57
2022-10-12T10:07:23.985Z,4.72
2022-10-12T10:10:08.182Z,4.63
2022-10-12T10:12:39.057Z,4.00
2022-10-12T10:15:33.585Z,4.15
2022-10-12T10:21:40.117Z,4.95
2022-10-12T10:24:08.678Z,4.28
2022-10-12T10:27:01.109Z,4.78
2022-10-12T10:30:38.072Z,4.65
2022-10-12T10:34:02.711Z,3.53
2022-10-12T10:36:30.336Z,3.95
2022-10-12T10:39:04.800Z,3.50
2022-10-12T10:41:39.773Z,3.75
2022-10-12T10:44:21.877Z,3.80
2022-10-12T10:46:49.875Z,4.30
2022-10-12T10:49:30.388Z,4.43
2022-10-12T10:52:00.531Z,3.88
2022-10-12T10:54:33.933Z,3.53
2022-10-12T10:57:21.812Z,4.30
2022-10-12T10:59:59.835Z,4.00
2022-10-12T11:02:51.860Z,4.43
2022-10-12T11:05:44.198Z,4.43
2022-10-12T11:08:15.342Z,5.30
2022-10-12T11:10:44.548Z,4.85
2022-10-12T11:13:21.076Z,4.88
2022-10-12T11:16:38.764Z,4.90
2022-10-12T11:19:14.825Z,4.65
2022-10-12T11:29:06.588Z,5.50
2022-10-12T11:31:39.253Z,4.60
2022-10-12T11:34:13.300Z,5.22
2022-10-12T11:37:18.710Z,5.50
2022-10-12T11:39:37.872Z,4.72
2022-10-12T11:42:22.867Z,4.82
2022-10-12T11:44:50.731Z,4.30
2022-10-12T11:50:58.897Z,4.32
2022-10-12T11:57:13.816Z,4.70
2022-10-12T12:07:17.623Z,4.22
2022-10-12T12:09:50.118Z,3.85
2022-10-12T12:12:27.470Z,4.13
2022-10-12T12:14:55.008Z,4.18
2022-10-12T12:17:23.788Z,4.55
2022-10-12T12:20:11.333Z,4.55
2022-10-12T12:22:56.926Z,4.20
2022-10-12T12:25:30.734Z,4.82
2022-10-12T12:28:02.080Z,4.47
2022-10-12T12:30:34.267Z,4.35
2022-10-12T12:33:06.987Z,4.05
2022-10-12T12:36:30.886Z,4.53
2022-10-12T12:38:58.888Z,3.85
2022-10-12T12:41:51.953Z,4.35
2022-10-12T12:44:37.179Z,4.15
2022-10-12T12:47:26.166Z,4.32
2022-10-12T12:49:55.911Z,4.80
2022-10-12T12:52:33.728Z,4.50
2022-10-12T12:55:10.454Z,4.53
2022-10-12T12:57:57.891Z,4.57
2022-10-12T13:00:50.320Z,4.57
2022-10-12T13:03:20.905Z,4.70
2022-10-12T13:06:20.744Z,5.05
2022-10-12T13:09:07.221Z,4.13
2022-10-12T13:11:40.331Z,4.25
2022-10-12T13:14:21.316Z,3.92
2022-10-12T13:17:32.436Z,4.82
2022-10-12T13:20:17.055Z,4.65
2022-10-12T13:22:45.872Z,3.95
2022-10-12T13:25:36.697Z,4.05
2022-10-12T13:28:21.396Z,5.35
2022-10-12T13:30:54.942Z,4.10
2022-10-12T13:34:06.674Z,4.82
2022-10-12T13:36:36.916Z,4.30
2022-10-12T13:39:19.599Z,4.78
2022-10-12T13:41:48.013Z,4.82
2022-10-12T13:44:22.224Z,3.92
2022-10-12T13:46:51.520Z,4.60
2022-10-12T13:49:22.612Z,4.53
2022-10-12T13:51:54.786Z,4.20
2022-10-12T13:57:32.265Z,4.00
2022-10-12T14:00:19.407Z,4.43
2022-10-12T14:06:05.513Z,5.03
2022-10-12T14:08:38.623Z,4.47
2022-10-12T14:11:06.405Z,4.70
2022-10-12T14:13:35.383Z,5.20
2022-10-12T14:16:06.212Z,5.22
2022-10-12T14:18:41.440Z,4.95
2022-10-12T14:21:25.420Z,4.97
2022-10-12T14:27:12.286Z,5.20
2022-10-12T14:29:39.823Z,4.85
2022-10-12T14:32:12.668Z,5.35
2022-10-12T14:34:45.141Z,5.53
2022-10-12T14:37:15.716Z,5.07
2022-10-12T14:40:10.200Z,4.45
2022-10-12T14:46:10.084Z,5.45
2022-10-12T14:48:37.782Z,4.43
2022-10-12T14:51:05.345Z,4.68
2022-10-12T14:53:58.065Z,4.60
2022-10-12T14:56:25.658Z,4.40
2022-10-12T14:58:53.338Z,4.97
2022-10-12T15:01:21.605Z,4.85
2022-10-12T15:08:03.929Z,4.53
2022-10-12T15:10:31.498Z,4.65
2022-10-12T15:12:59.019Z,5.28
2022-10-12T15:15:32.751Z,4.88
2022-10-12T15:18:00.372Z,4.82
2022-10-12T15:20:33.035Z,5.20
2022-10-12T15:23:08.276Z,5.15
2022-10-12T15:33:02.854Z,4.97
2022-10-12T15:35:33.070Z,5.70
2022-10-12T15:38:00.643Z,4.72
2022-10-12T15:47:18.784Z,4.63
2022-10-12T15:49:46.468Z,4.53
2022-10-12T15:52:14.160Z,4.43
2022-10-12T15:54:45.530Z,4.68
2022-10-12T15:57:33.507Z,4.45
2022-10-12T16:00:01.070Z,4.53
2022-10-12T16:02:28.608Z,4.30
2022-10-12T16:04:56.920Z,4.53
2022-10-12T16:07:24.402Z,4.38
2022-10-12T16:10:22.737Z,4.30
2022-10-12T16:12:51.748Z,4.53
2022-10-12T16:15:23.747Z,4.13
2022-10-12T16:17:54.508Z,4.18
2022-10-12T16:20:22.641Z,4.70
2022-10-12T16:22:50.481Z,4.32
2022-10-12T16:25:19.170Z,4.18
2022-10-12T16:27:46.944Z,4.55
2022-10-12T16:30:15.256Z,4.25
2022-10-12T16:32:42.950Z,3.92
2022-10-12T16:35:10.691Z,3.67
2022-10-12T16:37:38.445Z,4.00
2022-10-12T16:40:06.715Z,4.30
2022-10-12T16:42:34.223Z,4.47
2022-10-12T16:45:02.161Z,4.70
2022-10-12T16:47:29.839Z,5.60
2022-10-12T16:49:57.452Z,5.15
2022-10-12T16:52:26.319Z,5.80
2022-10-12T16:54:54.475Z,5.70
2022-10-12T16:57:23.603Z,5.82
2022-10-12T16:59:58.701Z,5.95
2022-10-12T17:05:36.369Z,5.88
2022-10-12T17:08:03.965Z,5.30
2022-10-12T17:10:31.490Z,5.10
2022-10-12T17:13:07.973Z,5.63
2022-10-12T17:15:47.025Z,5.88
2022-10-12T17:18:14.539Z,5.65
2022-10-12T17:21:07.317Z,5.70
2022-10-12T17:23:34.897Z,5.50
2022-10-12T17:26:26.795Z,5.45
2022-10-12T17:28:55.435Z,5.45
2022-10-12T17:35:10.499Z,5.82
2022-10-12T17:37:38.331Z,5.53
2022-10-12T17:40:10.639Z,5.65
2022-10-12T17:42:38.675Z,5.30
2022-10-12T17:45:16.632Z,5.50
2022-10-12T17:47:44.354Z,5.80
2022-10-12T17:50:40.367Z,6.20
2022-10-12T17:53:39.834Z,6.03
2022-10-12T17:59:07.893Z,6.43
2022-10-12T18:01:35.544Z,10.00
2022-10-12T18:04:04.450Z,6.57
2022-10-12T18:06:33.207Z,6.57
2022-10-12T18:09:02.234Z,5.82
2022-10-12T18:11:29.849Z,6.22
2022-10-12T18:13:58.021Z,6.03
2022-10-12T18:16:55.522Z,5.72
2022-10-12T18:19:52.634Z,6.47
2022-10-12T18:22:20.387Z,6.22
2022-10-12T18:24:48.940Z,6.10
2022-10-12T18:30:23.646Z,6.40
2022-10-12T18:32:51.316Z,6.88
2022-10-12T18:35:18.838Z,6.32
2022-10-12T18:37:46.314Z,6.85
2022-10-12T18:40:14.150Z,6.30
2022-10-12T18:42:41.734Z,6.38
2022-10-12T18:45:09.396Z,5.75
2022-10-12T18:47:37.461Z,6.80
2022-10-12T18:50:05.696Z,5.75
2022-10-12T18:53:20.525Z,6.85
2022-10-12T18:55:48.144Z,6.35
2022-10-12T18:58:15.707Z,6.72
2022-10-12T19:04:11.495Z,6.90
2022-10-12T19:06:41.952Z,6.53
2022-10-12T19:09:10.421Z,6.55
2022-10-12T19:11:38.122Z,6.68
2022-10-12T19:14:07.447Z,6.32
2022-10-12T19:16:41.732Z,6.97
2022-10-12T19:19:59.538Z,6.95
2022-10-12T19:25:10.539Z,6.75
2022-10-12T19:27:38.220Z,7.22
2022-10-12T19:37:36.193Z,6.50
2022-10-12T19:40:07.767Z,6.80
2022-10-12T19:42:35.730Z,7.38
2022-10-12T19:45:03.296Z,7.38
2022-10-12T19:48:19.286Z,7.90
2022-10-12T19:50:47.088Z,8.55
2022-10-12T19:54:00.988Z,7.45
2022-10-12T20:03:06.538Z,8.68
2022-10-12T20:05:34.573Z,9.75
2022-10-12T20:08:02.166Z,7.97
2022-10-12T20:17:50.182Z,8.02
2022-10-12T20:20:45.259Z,8.10
2022-10-12T20:23:13.297Z,8.65
2022-10-12T20:25:47.742Z,7.90
2022-10-12T20:28:15.390Z,7.80
2022-10-12T20:30:42.962Z,7.47
2022-10-12T20:33:11.913Z,7.78
2022-10-12T20:39:01.581Z,9.02
2022-10-12T20:41:29.444Z,8.70
2022-10-12T20:44:00.894Z,8.43
2022-10-12T20:53:21.760Z,8.25
2022-10-12T20:59:58.510Z,9.45
2022-10-12T21:02:29.383Z,9.07
2022-10-12T21:04:57.009Z,10.15
2022-10-12T21:10:01.929Z,10.05
2022-10-12T21:12:33.697Z,8.68
2022-10-12T21:15:03.671Z,9.68
2022-10-12T21:17:31.236Z,9.38
2022-10-12T21:20:00.735Z,9.68
2022-10-12T21:26:27.067Z,9.95
2022-10-12T21:28:54.980Z,9.98
2022-10-12T21:31:23.427Z,9.05
2022-10-12T21:33:52.712Z,9.10
2022-10-12T21:36:22.489Z,9.30
2022-10-12T21:38:50.566Z,9.02
2022-10-12T21:41:29.944Z,9.00
2022-10-12T21:44:00.102Z,9.45
2022-10-12T21:47:08.336Z,9.50
2022-10-12T21:49:35.927Z,10.52
2022-10-12T21:52:03.651Z,10.05
2022-10-12T21:54:33.881Z,9.43
2022-10-12T21:57:07.356Z,9.80
2022-10-12T21:59:34.951Z,9.95
2022-10-12T22:02:09.917Z,9.73
2022-10-12T22:05:29.424Z,10.55
2022-10-12T22:07:57.004Z,9.98
2022-10-12T22:10:24.662Z,9.95
2022-10-12T22:12:52.155Z,9.77
2022-10-12T22:15:24.033Z,10.10
2022-10-12T22:18:14.486Z,11.65
2022-10-12T22:20:51.032Z,9.95
2022-10-12T22:23:18.702Z,9.57
2022-10-12T22:25:47.280Z,9.32
2022-10-12T22:28:14.917Z,9.20
2022-10-12T22:30:43.664Z,9.60
2022-10-12T22:33:17.637Z,9.40
2022-10-12T22:35:58.044Z,9.23
2022-10-12T22:38:31.518Z,9.48
2022-10-12T22:41:12.226Z,10.20
2022-10-12T22:43:46.876Z,10.07
2022-10-12T22:46:14.475Z,10.45
2022-10-12T22:48:42.307Z,9.93
2022-10-12T22:51:14.952Z,9.77
2022-10-12T22:53:51.792Z,9.25
2022-10-12T22:56:19.482Z,9.93
2022-10-12T22:58:54.328Z,9.95
2022-10-12T23:01:22.244Z,9.65
2022-10-12T23:03:49.952Z,10.25
2022-10-12T23:06:42.973Z,9.80
2022-10-12T23:09:10.484Z,10.38
2022-10-12T23:11:38.038Z,9.93
2022-10-12T23:14:05.579Z,10.38
2022-10-12T23:16:33.857Z,11.05
2022-10-12T23:19:02.574Z,10.40
2022-10-12T23:21:30.864Z,10.65
2022-10-12T23:23:59.503Z,10.15
2022-10-12T23:26:27.674Z,11.02
2022-10-12T23:28:55.833Z,10.75
2022-10-12T23:31:24.783Z,10.93
2022-10-12T23:33:57.310Z,9.98
2022-10-12T23:36:25.316Z,10.88
2022-10-12T23:38:52.836Z,11.02
2022-10-12T23:41:20.403Z,11.35
2022-10-12T23:43:47.991Z,11.50
2022-10-12T23:46:15.587Z,11.63
2022-10-12T23:48:43.168Z,10.40
2022-10-12T23:51:10.934Z,11.15
2022-10-12T23:53:38.982Z,11.18
2022-10-12T23:56:07.254Z,11.02
2022-10-12T23:58:35.292Z,11.82
